Farwell, Texas
Current Conditions -  °F | °C
As of 12:15 PM on Sunday 25 Jan 2015 (Local Time) from KCVN Reporting Station
Clear Clear  
Wind Chill: 41°   Ceiling: Unl
Heat Index: 46°   Visibility: NA
Dew Point: 28°   Wind: 12mph
Humidity: 50%   Direction: 330°NNW
Pressure: 30.28"   Gusts: NA
Location:  34.38°N, 103.04°W
Report Text: KCVN 251815Z AUTO 33010KT CLR 08/M02 A3028 RMK AO1
Loading
Personal Weather Stations






























Interactive Weather Map New forecast layout! Learn more

10-Day Weather Forecast

Advertisements
Track Severe Weather on mobile